PAVD METAR and TAF weather

Enter ICAO airport designator
Station Type Date Time Source
PAVD METAR 2020/09/22 05:56 UTC NOAA

PAVD 220556Z 06003KT 10SM BKN060 BKN075 06/05 A2965 RMK AO2 SLP039 60002 T00610050 10083 20061 53002


Station Type Date Time Source
PAVD Decoded METAR 2020/09/22 05:56 UTC NOAA

Valdez 2, AK, United States (PAVD) 61-08N 146-16W
Sep 22, 2020 - 01:56 AM EDT / 2020.09.22 0556 UTC
Wind: from the ENE (060 degrees) at 3 MPH (3 KT):0
Visibility: 10 mile(s):0
Sky conditions: mostly cloudy
Temperature: 43.0 F (6.1 C)
Dew Point: 41.0 F (5.0 C)
Relative Humidity: 92%
Pressure (altimeter): 29.65 in. Hg (1004 hPa)
Pressure tendency: 0.01 inches (0.2 hPa) higher than three hours ago
ob: PAVD 220556Z 06003KT 10SM BKN060 BKN075 06/05 A2965 RMK AO2 SLP039 60002 T00610050 10083 20061 53002
cycle: 6

Station Type Date Time Source
PAVD TAF 2020/09/22 06:22 UTC NOAA

TAF PAVD 220520Z 2206/2306 VRB03KT P6SM -SHRA SCT045 OVC060
FM230000 VRB03KT 6SM -RA SCT025 OVC040
AMD LTD TO CLD VIS AND WIND

Example: see airport list